sensor_id;sensor_type;location;lat;lon;timestamp;P1;durP1;ratioP1;P2;durP2;ratioP2
46815;SDS011;32787;53.316;8.670;2024-02-21T00:02:09;34.42;;;23.17;;
46815;SDS011;32787;53.316;8.670;2024-02-21T00:04:35;35.80;;;23.48;;
46815;SDS011;32787;53.316;8.670;2024-02-21T00:07:01;36.53;;;23.80;;
46815;SDS011;32787;53.316;8.670;2024-02-21T00:09:27;37.08;;;24.08;;
46815;SDS011;32787;53.316;8.670;2024-02-21T00:11:53;34.47;;;23.05;;
46815;SDS011;32787;53.316;8.670;2024-02-21T00:14:18;35.88;;;23.55;;
46815;SDS011;32787;53.316;8.670;2024-02-21T00:16:44;34.90;;;23.15;;
46815;SDS011;32787;53.316;8.670;2024-02-21T00:19:10;34.55;;;22.92;;
46815;SDS011;32787;53.316;8.670;2024-02-21T00:21:35;36.95;;;23.98;;
46815;SDS011;32787;53.316;8.670;2024-02-21T00:24:01;35.95;;;23.67;;
46815;SDS011;32787;53.316;8.670;2024-02-21T00:26:26;36.17;;;23.60;;
46815;SDS011;32787;53.316;8.670;2024-02-21T00:28:52;35.10;;;23.33;;
46815;SDS011;32787;53.316;8.670;2024-02-21T00:31:18;34.92;;;23.13;;
46815;SDS011;32787;53.316;8.670;2024-02-21T00:33:44;35.08;;;23.33;;
46815;SDS011;32787;53.316;8.670;2024-02-21T00:36:09;36.35;;;23.77;;
46815;SDS011;32787;53.316;8.670;2024-02-21T00:38:35;35.70;;;23.52;;
46815;SDS011;32787;53.316;8.670;2024-02-21T00:41:00;35.65;;;23.48;;
46815;SDS011;32787;53.316;8.670;2024-02-21T00:43:26;34.83;;;23.15;;
46815;SDS011;32787;53.316;8.670;2024-02-21T00:45:52;35.35;;;23.33;;
46815;SDS011;32787;53.316;8.670;2024-02-21T00:48:17;35.10;;;23.27;;
46815;SDS011;32787;53.316;8.670;2024-02-21T00:50:43;34.53;;;23.08;;
46815;SDS011;32787;53.316;8.670;2024-02-21T00:53:09;35.80;;;23.58;;
46815;SDS011;32787;53.316;8.670;2024-02-21T00:55:35;34.75;;;23.08;;
46815;SDS011;32787;53.316;8.670;2024-02-21T00:58:00;36.63;;;23.73;;
46815;SDS011;32787;53.316;8.670;2024-02-21T01:00:26;36.13;;;23.67;;
46815;SDS011;32787;53.316;8.670;2024-02-21T01:02:52;34.92;;;23.35;;
46815;SDS011;32787;53.316;8.670;2024-02-21T01:05:17;35.38;;;23.23;;
46815;SDS011;32787;53.316;8.670;2024-02-21T01:07:44;36.13;;;23.63;;
46815;SDS011;32787;53.316;8.670;2024-02-21T01:10:09;34.97;;;23.27;;
46815;SDS011;32787;53.316;8.670;2024-02-21T01:12:35;34.28;;;22.73;;
46815;SDS011;32787;53.316;8.670;2024-02-21T01:15:01;34.75;;;23.02;;
46815;SDS011;32787;53.316;8.670;2024-02-21T01:17:27;36.72;;;23.75;;
46815;SDS011;32787;53.316;8.670;2024-02-21T01:19:53;35.40;;;23.38;;
46815;SDS011;32787;53.316;8.670;2024-02-21T01:22:19;35.33;;;23.40;;
46815;SDS011;32787;53.316;8.670;2024-02-21T01:24:44;35.38;;;23.52;;
46815;SDS011;32787;53.316;8.670;2024-02-21T01:27:10;35.92;;;23.75;;
46815;SDS011;32787;53.316;8.670;2024-02-21T01:29:36;36.58;;;23.90;;
46815;SDS011;32787;53.316;8.670;2024-02-21T01:32:01;35.90;;;23.60;;
46815;SDS011;32787;53.316;8.670;2024-02-21T01:34:27;36.13;;;23.65;;
46815;SDS011;32787;53.316;8.670;2024-02-21T01:36:53;36.70;;;24.02;;
46815;SDS011;32787;53.316;8.670;2024-02-21T01:39:18;36.53;;;23.65;;
46815;SDS011;32787;53.316;8.670;2024-02-21T01:41:44;36.67;;;24.00;;
46815;SDS011;32787;53.316;8.670;2024-02-21T01:44:09;37.58;;;24.30;;
46815;SDS011;32787;53.316;8.670;2024-02-21T01:46:35;37.33;;;24.20;;
46815;SDS011;32787;53.316;8.670;2024-02-21T01:49:01;36.42;;;23.75;;
46815;SDS011;32787;53.316;8.670;2024-02-21T01:51:27;36.60;;;23.92;;
46815;SDS011;32787;53.316;8.670;2024-02-21T01:53:53;36.38;;;23.73;;
46815;SDS011;32787;53.316;8.670;2024-02-21T01:56:20;36.40;;;23.90;;
46815;SDS011;32787;53.316;8.670;2024-02-21T01:58:46;35.38;;;23.35;;
46815;SDS011;32787;53.316;8.670;2024-02-21T02:01:13;35.58;;;23.40;;
46815;SDS011;32787;53.316;8.670;2024-02-21T02:03:39;35.85;;;23.50;;
46815;SDS011;32787;53.316;8.670;2024-02-21T02:06:05;37.75;;;24.23;;
46815;SDS011;32787;53.316;8.670;2024-02-21T02:08:34;38.90;;;24.63;;
46815;SDS011;32787;53.316;8.670;2024-02-21T02:11:00;35.60;;;23.45;;
46815;SDS011;32787;53.316;8.670;2024-02-21T02:13:26;35.40;;;23.35;;
46815;SDS011;32787;53.316;8.670;2024-02-21T02:15:52;38.10;;;24.40;;
46815;SDS011;32787;53.316;8.670;2024-02-21T02:18:19;36.10;;;23.73;;
46815;SDS011;32787;53.316;8.670;2024-02-21T02:20:45;35.58;;;23.38;;
46815;SDS011;32787;53.316;8.670;2024-02-21T02:23:32;36.70;;;23.75;;
46815;SDS011;32787;53.316;8.670;2024-02-21T02:25:58;36.40;;;23.73;;
46815;SDS011;32787;53.316;8.670;2024-02-21T02:28:25;34.50;;;23.00;;
46815;SDS011;32787;53.316;8.670;2024-02-21T02:30:51;34.35;;;22.80;;
46815;SDS011;32787;53.316;8.670;2024-02-21T02:33:17;37.10;;;23.92;;
46815;SDS011;32787;53.316;8.670;2024-02-21T02:35:43;34.38;;;22.88;;
46815;SDS011;32787;53.316;8.670;2024-02-21T02:38:09;36.88;;;23.95;;
46815;SDS011;32787;53.316;8.670;2024-02-21T02:40:37;35.97;;;23.55;;
46815;SDS011;32787;53.316;8.670;2024-02-21T02:43:04;35.72;;;23.42;;
46815;SDS011;32787;53.316;8.670;2024-02-21T02:45:29;37.03;;;23.98;;
46815;SDS011;32787;53.316;8.670;2024-02-21T02:47:56;37.35;;;24.15;;
46815;SDS011;32787;53.316;8.670;2024-02-21T02:50:26;36.13;;;23.75;;
46815;SDS011;32787;53.316;8.670;2024-02-21T02:52:52;38.22;;;24.42;;
46815;SDS011;32787;53.316;8.670;2024-02-21T02:55:21;37.05;;;23.98;;
46815;SDS011;32787;53.316;8.670;2024-02-21T02:57:47;36.55;;;23.92;;
46815;SDS011;32787;53.316;8.670;2024-02-21T03:00:13;36.95;;;23.83;;
46815;SDS011;32787;53.316;8.670;2024-02-21T03:02:41;36.83;;;23.90;;
46815;SDS011;32787;53.316;8.670;2024-02-21T03:05:15;35.35;;;23.45;;
46815;SDS011;32787;53.316;8.670;2024-02-21T03:07:42;36.97;;;23.92;;
46815;SDS011;32787;53.316;8.670;2024-02-21T03:10:08;34.42;;;23.02;;
46815;SDS011;32787;53.316;8.670;2024-02-21T03:12:35;36.85;;;23.95;;
46815;SDS011;32787;53.316;8.670;2024-02-21T03:15:01;36.10;;;23.75;;
46815;SDS011;32787;53.316;8.670;2024-02-21T03:17:27;36.13;;;23.60;;
46815;SDS011;32787;53.316;8.670;2024-02-21T03:19:53;36.45;;;23.77;;
46815;SDS011;32787;53.316;8.670;2024-02-21T03:22:20;34.75;;;23.17;;
46815;SDS011;32787;53.316;8.670;2024-02-21T03:24:46;34.58;;;23.13;;
46815;SDS011;32787;53.316;8.670;2024-02-21T03:27:12;35.15;;;23.30;;
46815;SDS011;32787;53.316;8.670;2024-02-21T03:29:37;35.17;;;23.23;;
46815;SDS011;32787;53.316;8.670;2024-02-21T03:32:03;36.25;;;23.65;;
46815;SDS011;32787;53.316;8.670;2024-02-21T03:34:29;34.83;;;23.23;;
46815;SDS011;32787;53.316;8.670;2024-02-21T03:36:54;34.17;;;22.88;;
46815;SDS011;32787;53.316;8.670;2024-02-21T03:39:20;34.28;;;22.98;;
46815;SDS011;32787;53.316;8.670;2024-02-21T03:41:46;35.47;;;23.52;;
46815;SDS011;32787;53.316;8.670;2024-02-21T03:44:12;34.58;;;23.10;;
46815;SDS011;32787;53.316;8.670;2024-02-21T03:46:38;35.47;;;23.42;;
46815;SDS011;32787;53.316;8.670;2024-02-21T03:49:03;33.92;;;22.75;;
46815;SDS011;32787;53.316;8.670;2024-02-21T03:51:29;35.25;;;23.35;;
46815;SDS011;32787;53.316;8.670;2024-02-21T03:53:55;35.28;;;23.33;;
46815;SDS011;32787;53.316;8.670;2024-02-21T03:56:20;34.65;;;23.15;;
46815;SDS011;32787;53.316;8.670;2024-02-21T03:58:46;33.17;;;22.52;;
46815;SDS011;32787;53.316;8.670;2024-02-21T04:01:12;33.35;;;22.75;;
46815;SDS011;32787;53.316;8.670;2024-02-21T04:03:40;34.83;;;23.17;;
46815;SDS011;32787;53.316;8.670;2024-02-21T04:06:05;34.05;;;22.95;;
46815;SDS011;32787;53.316;8.670;2024-02-21T04:08:31;40.00;;;25.00;;
46815;SDS011;32787;53.316;8.670;2024-02-21T04:10:56;36.63;;;23.95;;
46815;SDS011;32787;53.316;8.670;2024-02-21T04:13:22;33.80;;;22.95;;
46815;SDS011;32787;53.316;8.670;2024-02-21T04:15:48;33.15;;;22.55;;
46815;SDS011;32787;53.316;8.670;2024-02-21T04:18:13;33.95;;;23.00;;
46815;SDS011;32787;53.316;8.670;2024-02-21T04:20:40;33.78;;;22.88;;
46815;SDS011;32787;53.316;8.670;2024-02-21T04:23:05;33.05;;;22.58;;
46815;SDS011;32787;53.316;8.670;2024-02-21T04:25:31;33.75;;;22.73;;
46815;SDS011;32787;53.316;8.670;2024-02-21T04:27:57;32.83;;;22.35;;
46815;SDS011;32787;53.316;8.670;2024-02-21T04:30:22;32.08;;;22.20;;
46815;SDS011;32787;53.316;8.670;2024-02-21T04:32:48;32.83;;;22.55;;
46815;SDS011;32787;53.316;8.670;2024-02-21T04:35:13;33.90;;;22.83;;
46815;SDS011;32787;53.316;8.670;2024-02-21T04:37:39;33.72;;;22.88;;
46815;SDS011;32787;53.316;8.670;2024-02-21T04:40:05;31.63;;;22.13;;
46815;SDS011;32787;53.316;8.670;2024-02-21T04:42:31;32.38;;;22.38;;
46815;SDS011;32787;53.316;8.670;2024-02-21T04:44:57;33.03;;;22.65;;
46815;SDS011;32787;53.316;8.670;2024-02-21T04:47:22;32.42;;;22.35;;
46815;SDS011;32787;53.316;8.670;2024-02-21T04:49:49;32.67;;;22.40;;
46815;SDS011;32787;53.316;8.670;2024-02-21T04:52:15;32.50;;;22.48;;
46815;SDS011;32787;53.316;8.670;2024-02-21T04:54:41;32.95;;;22.67;;
46815;SDS011;32787;53.316;8.670;2024-02-21T04:57:06;32.38;;;22.38;;
46815;SDS011;32787;53.316;8.670;2024-02-21T04:59:32;32.53;;;22.45;;
46815;SDS011;32787;53.316;8.670;2024-02-21T05:02:00;32.25;;;22.35;;
46815;SDS011;32787;53.316;8.670;2024-02-21T05:04:25;32.10;;;22.38;;
46815;SDS011;32787;53.316;8.670;2024-02-21T05:06:51;31.55;;;22.00;;
46815;SDS011;32787;53.316;8.670;2024-02-21T05:09:16;31.52;;;22.10;;
46815;SDS011;32787;53.316;8.670;2024-02-21T05:11:42;30.88;;;21.70;;
46815;SDS011;32787;53.316;8.670;2024-02-21T05:14:08;32.10;;;22.42;;
46815;SDS011;32787;53.316;8.670;2024-02-21T05:16:33;31.88;;;22.33;;
46815;SDS011;32787;53.316;8.670;2024-02-21T05:18:59;31.50;;;22.05;;
46815;SDS011;32787;53.316;8.670;2024-02-21T05:21:25;30.92;;;21.92;;
46815;SDS011;32787;53.316;8.670;2024-02-21T05:23:51;31.35;;;21.88;;
46815;SDS011;32787;53.316;8.670;2024-02-21T05:26:23;31.08;;;21.85;;
46815;SDS011;32787;53.316;8.670;2024-02-21T05:28:50;30.50;;;21.63;;
46815;SDS011;32787;53.316;8.670;2024-02-21T05:31:17;30.27;;;21.65;;
46815;SDS011;32787;53.316;8.670;2024-02-21T05:33:43;29.75;;;21.38;;
46815;SDS011;32787;53.316;8.670;2024-02-21T05:36:09;30.42;;;21.83;;
46815;SDS011;32787;53.316;8.670;2024-02-21T05:38:35;29.48;;;21.38;;
46815;SDS011;32787;53.316;8.670;2024-02-21T05:41:01;31.55;;;22.23;;
46815;SDS011;32787;53.316;8.670;2024-02-21T05:43:27;30.75;;;21.73;;
46815;SDS011;32787;53.316;8.670;2024-02-21T05:45:52;30.85;;;21.80;;
46815;SDS011;32787;53.316;8.670;2024-02-21T05:48:18;30.95;;;21.95;;
46815;SDS011;32787;53.316;8.670;2024-02-21T05:50:44;30.50;;;21.75;;
46815;SDS011;32787;53.316;8.670;2024-02-21T05:53:09;30.05;;;21.75;;
46815;SDS011;32787;53.316;8.670;2024-02-21T05:55:36;29.98;;;21.55;;
46815;SDS011;32787;53.316;8.670;2024-02-21T05:58:02;31.08;;;21.98;;
46815;SDS011;32787;53.316;8.670;2024-02-21T06:00:28;30.45;;;21.75;;
46815;SDS011;32787;53.316;8.670;2024-02-21T06:02:53;29.38;;;21.25;;
46815;SDS011;32787;53.316;8.670;2024-02-21T06:05:19;31.35;;;21.98;;
46815;SDS011;32787;53.316;8.670;2024-02-21T06:07:45;30.23;;;21.63;;
46815;SDS011;32787;53.316;8.670;2024-02-21T06:10:10;29.98;;;21.60;;
46815;SDS011;32787;53.316;8.670;2024-02-21T06:12:36;30.52;;;21.80;;
46815;SDS011;32787;53.316;8.670;2024-02-21T06:15:02;30.10;;;21.60;;
46815;SDS011;32787;53.316;8.670;2024-02-21T06:17:28;30.45;;;21.70;;
46815;SDS011;32787;53.316;8.670;2024-02-21T06:19:53;30.17;;;21.58;;
46815;SDS011;32787;53.316;8.670;2024-02-21T06:22:19;30.35;;;21.55;;
46815;SDS011;32787;53.316;8.670;2024-02-21T06:24:45;30.33;;;21.77;;
46815;SDS011;32787;53.316;8.670;2024-02-21T06:27:11;30.30;;;21.63;;
46815;SDS011;32787;53.316;8.670;2024-02-21T06:29:36;30.88;;;21.88;;
46815;SDS011;32787;53.316;8.670;2024-02-21T06:32:02;31.45;;;22.05;;
46815;SDS011;32787;53.316;8.670;2024-02-21T06:34:28;32.20;;;22.35;;
46815;SDS011;32787;53.316;8.670;2024-02-21T06:36:54;32.35;;;22.40;;
46815;SDS011;32787;53.316;8.670;2024-02-21T06:39:19;32.63;;;22.45;;
46815;SDS011;32787;53.316;8.670;2024-02-21T06:41:47;33.05;;;22.63;;
46815;SDS011;32787;53.316;8.670;2024-02-21T06:44:15;33.40;;;22.85;;
46815;SDS011;32787;53.316;8.670;2024-02-21T06:46:44;32.78;;;22.40;;
46815;SDS011;32787;53.316;8.670;2024-02-21T06:49:09;32.65;;;22.38;;
46815;SDS011;32787;53.316;8.670;2024-02-21T06:51:41;32.13;;;22.35;;
46815;SDS011;32787;53.316;8.670;2024-02-21T06:54:07;31.10;;;21.90;;
46815;SDS011;32787;53.316;8.670;2024-02-21T06:56:34;30.65;;;21.67;;
46815;SDS011;32787;53.316;8.670;2024-02-21T06:59:00;31.95;;;22.23;;
46815;SDS011;32787;53.316;8.670;2024-02-21T07:01:28;32.40;;;22.50;;
46815;SDS011;32787;53.316;8.670;2024-02-21T07:03:54;31.42;;;22.10;;
46815;SDS011;32787;53.316;8.670;2024-02-21T07:06:19;31.60;;;22.20;;
46815;SDS011;32787;53.316;8.670;2024-02-21T07:08:45;30.65;;;21.75;;
46815;SDS011;32787;53.316;8.670;2024-02-21T07:11:11;31.17;;;22.10;;
46815;SDS011;32787;53.316;8.670;2024-02-21T07:13:37;31.73;;;22.23;;
46815;SDS011;32787;53.316;8.670;2024-02-21T07:16:02;32.65;;;22.58;;
46815;SDS011;32787;53.316;8.670;2024-02-21T07:18:28;32.25;;;22.50;;
46815;SDS011;32787;53.316;8.670;2024-02-21T07:20:54;31.55;;;22.15;;
46815;SDS011;32787;53.316;8.670;2024-02-21T07:23:20;32.95;;;22.63;;
46815;SDS011;32787;53.316;8.670;2024-02-21T07:25:46;31.92;;;22.20;;
46815;SDS011;32787;53.316;8.670;2024-02-21T07:28:12;31.00;;;21.98;;
46815;SDS011;32787;53.316;8.670;2024-02-21T07:30:38;31.13;;;22.02;;
46815;SDS011;32787;53.316;8.670;2024-02-21T07:33:04;30.92;;;21.85;;
46815;SDS011;32787;53.316;8.670;2024-02-21T07:35:30;30.63;;;21.73;;
46815;SDS011;32787;53.316;8.670;2024-02-21T07:37:55;29.80;;;21.38;;
46815;SDS011;32787;53.316;8.670;2024-02-21T07:40:21;32.58;;;22.63;;
46815;SDS011;32787;53.316;8.670;2024-02-21T07:42:46;30.75;;;21.73;;
46815;SDS011;32787;53.316;8.670;2024-02-21T07:45:12;31.30;;;22.00;;
46815;SDS011;32787;53.316;8.670;2024-02-21T07:47:38;31.48;;;21.95;;
46815;SDS011;32787;53.316;8.670;2024-02-21T07:50:04;29.92;;;21.40;;
46815;SDS011;32787;53.316;8.670;2024-02-21T07:52:30;31.35;;;22.13;;
46815;SDS011;32787;53.316;8.670;2024-02-21T07:54:55;30.45;;;21.73;;
46815;SDS011;32787;53.316;8.670;2024-02-21T07:57:21;30.83;;;21.92;;
46815;SDS011;32787;53.316;8.670;2024-02-21T07:59:47;30.17;;;21.58;;
46815;SDS011;32787;53.316;8.670;2024-02-21T08:02:13;30.50;;;21.83;;
46815;SDS011;32787;53.316;8.670;2024-02-21T08:04:39;31.42;;;22.08;;
46815;SDS011;32787;53.316;8.670;2024-02-21T08:07:05;31.25;;;22.08;;
46815;SDS011;32787;53.316;8.670;2024-02-21T08:09:31;30.08;;;21.67;;
46815;SDS011;32787;53.316;8.670;2024-02-21T08:11:56;30.23;;;21.67;;
46815;SDS011;32787;53.316;8.670;2024-02-21T08:14:22;31.25;;;22.00;;
46815;SDS011;32787;53.316;8.670;2024-02-21T08:16:50;31.92;;;22.17;;
46815;SDS011;32787;53.316;8.670;2024-02-21T08:19:16;31.23;;;21.83;;
46815;SDS011;32787;53.316;8.670;2024-02-21T08:21:42;32.50;;;22.55;;
46815;SDS011;32787;53.316;8.670;2024-02-21T08:24:07;31.95;;;22.30;;
46815;SDS011;32787;53.316;8.670;2024-02-21T08:26:33;32.72;;;22.58;;
46815;SDS011;32787;53.316;8.670;2024-02-21T08:29:01;31.35;;;21.98;;
46815;SDS011;32787;53.316;8.670;2024-02-21T08:31:26;29.83;;;21.42;;
46815;SDS011;32787;53.316;8.670;2024-02-21T08:33:59;31.08;;;22.05;;
46815;SDS011;32787;53.316;8.670;2024-02-21T08:36:32;28.60;;;20.95;;
46815;SDS011;32787;53.316;8.670;2024-02-21T08:41:24;28.27;;;21.00;;
46815;SDS011;32787;53.316;8.670;2024-02-21T08:43:51;25.63;;;20.10;;
46815;SDS011;32787;53.316;8.670;2024-02-21T08:46:19;23.73;;;19.40;;
46815;SDS011;32787;53.316;8.670;2024-02-21T08:48:45;26.58;;;20.38;;
46815;SDS011;32787;53.316;8.670;2024-02-21T08:51:14;27.15;;;20.60;;
46815;SDS011;32787;53.316;8.670;2024-02-21T08:53:40;28.10;;;20.98;;
46815;SDS011;32787;53.316;8.670;2024-02-21T08:56:06;28.70;;;21.10;;
46815;SDS011;32787;53.316;8.670;2024-02-21T08:58:32;28.05;;;20.80;;
46815;SDS011;32787;53.316;8.670;2024-02-21T09:01:00;28.73;;;21.08;;
46815;SDS011;32787;53.316;8.670;2024-02-21T09:03:26;27.50;;;20.77;;
46815;SDS011;32787;53.316;8.670;2024-02-21T09:05:51;29.48;;;21.50;;
46815;SDS011;32787;53.316;8.670;2024-02-21T09:08:17;28.92;;;21.05;;
46815;SDS011;32787;53.316;8.670;2024-02-21T09:10:44;29.02;;;21.13;;
46815;SDS011;32787;53.316;8.670;2024-02-21T09:13:09;29.08;;;21.20;;
46815;SDS011;32787;53.316;8.670;2024-02-21T09:15:35;31.08;;;22.02;;
46815;SDS011;32787;53.316;8.670;2024-02-21T09:18:01;30.88;;;21.92;;
46815;SDS011;32787;53.316;8.670;2024-02-21T09:20:26;30.85;;;21.83;;
46815;SDS011;32787;53.316;8.670;2024-02-21T09:22:52;31.48;;;22.13;;
46815;SDS011;32787;53.316;8.670;2024-02-21T09:25:18;31.52;;;22.17;;
46815;SDS011;32787;53.316;8.670;2024-02-21T09:27:44;29.90;;;21.60;;
46815;SDS011;32787;53.316;8.670;2024-02-21T09:30:10;31.08;;;22.00;;
46815;SDS011;32787;53.316;8.670;2024-02-21T09:32:36;29.88;;;21.50;;
46815;SDS011;32787;53.316;8.670;2024-02-21T09:35:02;30.98;;;21.95;;
46815;SDS011;32787;53.316;8.670;2024-02-21T09:37:28;29.02;;;21.02;;
46815;SDS011;32787;53.316;8.670;2024-02-21T09:39:54;29.88;;;21.42;;
46815;SDS011;32787;53.316;8.670;2024-02-21T09:42:20;30.75;;;21.80;;
46815;SDS011;32787;53.316;8.670;2024-02-21T09:44:49;30.95;;;21.88;;
46815;SDS011;32787;53.316;8.670;2024-02-21T09:47:20;29.33;;;21.30;;
46815;SDS011;32787;53.316;8.670;2024-02-21T09:49:49;30.10;;;21.60;;
46815;SDS011;32787;53.316;8.670;2024-02-21T09:52:16;30.90;;;21.90;;
46815;SDS011;32787;53.316;8.670;2024-02-21T09:54:44;31.02;;;21.85;;
46815;SDS011;32787;53.316;8.670;2024-02-21T09:57:10;30.02;;;21.45;;
46815;SDS011;32787;53.316;8.670;2024-02-21T09:59:37;31.00;;;22.00;;
46815;SDS011;32787;53.316;8.670;2024-02-21T10:02:03;28.63;;;20.83;;
46815;SDS011;32787;53.316;8.670;2024-02-21T10:04:29;30.00;;;21.60;;
46815;SDS011;32787;53.316;8.670;2024-02-21T10:06:55;29.17;;;21.38;;
46815;SDS011;32787;53.316;8.670;2024-02-21T10:09:25;30.63;;;21.92;;
46815;SDS011;32787;53.316;8.670;2024-02-21T10:11:55;30.33;;;21.83;;
46815;SDS011;32787;53.316;8.670;2024-02-21T10:14:32;30.27;;;21.55;;
46815;SDS011;32787;53.316;8.670;2024-02-21T10:16:57;27.73;;;20.77;;
46815;SDS011;32787;53.316;8.670;2024-02-21T10:24:33;29.38;;;21.45;;
46815;SDS011;32787;53.316;8.670;2024-02-21T10:27:02;27.83;;;20.77;;
46815;SDS011;32787;53.316;8.670;2024-02-21T10:29:33;27.02;;;20.45;;
46815;SDS011;32787;53.316;8.670;2024-02-21T10:34:36;27.73;;;20.83;;
46815;SDS011;32787;53.316;8.670;2024-02-21T10:39:28;28.77;;;21.10;;
46815;SDS011;32787;53.316;8.670;2024-02-21T10:41:55;28.90;;;21.25;;
46815;SDS011;32787;53.316;8.670;2024-02-21T10:44:24;28.75;;;21.10;;
46815;SDS011;32787;53.316;8.670;2024-02-21T10:46:53;29.77;;;21.63;;
46815;SDS011;32787;53.316;8.670;2024-02-21T10:49:22;30.20;;;21.67;;
46815;SDS011;32787;53.316;8.670;2024-02-21T10:51:50;30.33;;;21.67;;
46815;SDS011;32787;53.316;8.670;2024-02-21T10:57:05;29.67;;;21.52;;
46815;SDS011;32787;53.316;8.670;2024-02-21T10:59:33;29.98;;;21.63;;
46815;SDS011;32787;53.316;8.670;2024-02-21T11:02:02;29.48;;;21.40;;
46815;SDS011;32787;53.316;8.670;2024-02-21T11:04:28;29.42;;;21.40;;
46815;SDS011;32787;53.316;8.670;2024-02-21T11:06:56;29.85;;;21.60;;
46815;SDS011;32787;53.316;8.670;2024-02-21T11:09:32;30.75;;;21.92;;
46815;SDS011;32787;53.316;8.670;2024-02-21T11:11:58;31.08;;;21.98;;
46815;SDS011;32787;53.316;8.670;2024-02-21T11:14:28;30.10;;;21.65;;
46815;SDS011;32787;53.316;8.670;2024-02-21T11:16:57;31.83;;;22.30;;
46815;SDS011;32787;53.316;8.670;2024-02-21T11:19:27;30.35;;;21.65;;
46815;SDS011;32787;53.316;8.670;2024-02-21T11:21:54;31.10;;;22.05;;
46815;SDS011;32787;53.316;8.670;2024-02-21T11:24:25;31.33;;;22.08;;
46815;SDS011;32787;53.316;8.670;2024-02-21T11:26:55;30.85;;;21.90;;
46815;SDS011;32787;53.316;8.670;2024-02-21T11:29:24;31.27;;;22.10;;
46815;SDS011;32787;53.316;8.670;2024-02-21T11:31:51;30.52;;;21.83;;
46815;SDS011;32787;53.316;8.670;2024-02-21T11:34:17;32.10;;;22.27;;
46815;SDS011;32787;53.316;8.670;2024-02-21T11:36:51;31.23;;;21.92;;
46815;SDS011;32787;53.316;8.670;2024-02-21T11:39:26;31.48;;;22.00;;
46815;SDS011;32787;53.316;8.670;2024-02-21T11:42:02;31.48;;;22.08;;
46815;SDS011;32787;53.316;8.670;2024-02-21T11:46:59;30.83;;;21.98;;
46815;SDS011;32787;53.316;8.670;2024-02-21T11:49:25;31.52;;;22.23;;
46815;SDS011;32787;53.316;8.670;2024-02-21T11:51:58;31.38;;;22.10;;
46815;SDS011;32787;53.316;8.670;2024-02-21T11:54:26;31.52;;;22.20;;
46815;SDS011;32787;53.316;8.670;2024-02-21T11:56:52;32.08;;;22.40;;
46815;SDS011;32787;53.316;8.670;2024-02-21T11:59:17;32.65;;;22.58;;
46815;SDS011;32787;53.316;8.670;2024-02-21T12:01:43;33.45;;;22.92;;
46815;SDS011;32787;53.316;8.670;2024-02-21T12:04:09;32.85;;;22.52;;
46815;SDS011;32787;53.316;8.670;2024-02-21T12:06:35;33.25;;;22.52;;
46815;SDS011;32787;53.316;8.670;2024-02-21T12:09:01;33.78;;;23.02;;
46815;SDS011;32787;53.316;8.670;2024-02-21T12:11:26;32.72;;;22.50;;
46815;SDS011;32787;53.316;8.670;2024-02-21T12:14:02;32.67;;;22.35;;
46815;SDS011;32787;53.316;8.670;2024-02-21T12:16:29;34.03;;;23.17;;
46815;SDS011;32787;53.316;8.670;2024-02-21T12:18:59;34.05;;;22.92;;
46815;SDS011;32787;53.316;8.670;2024-02-21T12:21:31;34.58;;;23.13;;
46815;SDS011;32787;53.316;8.670;2024-02-21T12:23:59;32.70;;;22.55;;
46815;SDS011;32787;53.316;8.670;2024-02-21T12:26:25;32.97;;;22.52;;
46815;SDS011;32787;53.316;8.670;2024-02-21T12:28:52;33.25;;;22.58;;
46815;SDS011;32787;53.316;8.670;2024-02-21T12:31:20;33.53;;;22.65;;
46815;SDS011;32787;53.316;8.670;2024-02-21T12:33:46;34.53;;;23.23;;
46815;SDS011;32787;53.316;8.670;2024-02-21T12:36:13;33.42;;;22.77;;
46815;SDS011;32787;53.316;8.670;2024-02-21T12:38:39;34.90;;;23.40;;
46815;SDS011;32787;53.316;8.670;2024-02-21T12:41:05;34.78;;;23.25;;
46815;SDS011;32787;53.316;8.670;2024-02-21T12:43:32;34.45;;;23.13;;
46815;SDS011;32787;53.316;8.670;2024-02-21T12:45:59;34.45;;;23.23;;
46815;SDS011;32787;53.316;8.670;2024-02-21T12:48:25;34.33;;;23.25;;
46815;SDS011;32787;53.316;8.670;2024-02-21T12:50:50;33.58;;;22.90;;
46815;SDS011;32787;53.316;8.670;2024-02-21T12:53:19;34.03;;;23.00;;
46815;SDS011;32787;53.316;8.670;2024-02-21T12:55:49;36.38;;;23.70;;
46815;SDS011;32787;53.316;8.670;2024-02-21T12:58:15;35.10;;;23.48;;
46815;SDS011;32787;53.316;8.670;2024-02-21T13:00:41;34.25;;;22.90;;
46815;SDS011;32787;53.316;8.670;2024-02-21T13:03:07;35.03;;;23.30;;
46815;SDS011;32787;53.316;8.670;2024-02-21T13:05:35;35.33;;;23.33;;
46815;SDS011;32787;53.316;8.670;2024-02-21T13:08:01;33.85;;;22.95;;
46815;SDS011;32787;53.316;8.670;2024-02-21T13:10:27;34.67;;;23.30;;
46815;SDS011;32787;53.316;8.670;2024-02-21T13:12:53;33.22;;;22.88;;
46815;SDS011;32787;53.316;8.670;2024-02-21T13:15:19;33.40;;;22.70;;
46815;SDS011;32787;53.316;8.670;2024-02-21T13:17:45;34.35;;;23.48;;
46815;SDS011;32787;53.316;8.670;2024-02-21T13:20:11;34.03;;;23.35;;
46815;SDS011;32787;53.316;8.670;2024-02-21T13:22:37;35.08;;;23.67;;
46815;SDS011;32787;53.316;8.670;2024-02-21T13:25:03;36.13;;;23.88;;
46815;SDS011;32787;53.316;8.670;2024-02-21T13:27:32;36.55;;;23.73;;
46815;SDS011;32787;53.316;8.670;2024-02-21T13:29:58;33.78;;;22.77;;
46815;SDS011;32787;53.316;8.670;2024-02-21T13:32:25;34.25;;;23.10;;
46815;SDS011;32787;53.316;8.670;2024-02-21T13:34:50;35.92;;;23.65;;
46815;SDS011;32787;53.316;8.670;2024-02-21T13:37:17;35.05;;;23.27;;
46815;SDS011;32787;53.316;8.670;2024-02-21T13:39:43;37.00;;;24.20;;
46815;SDS011;32787;53.316;8.670;2024-02-21T13:42:09;35.95;;;23.52;;
46815;SDS011;32787;53.316;8.670;2024-02-21T13:44:35;35.47;;;23.75;;
46815;SDS011;32787;53.316;8.670;2024-02-21T13:47:01;36.03;;;23.80;;
46815;SDS011;32787;53.316;8.670;2024-02-21T13:49:27;35.83;;;23.67;;
46815;SDS011;32787;53.316;8.670;2024-02-21T13:51:53;34.58;;;23.02;;
46815;SDS011;32787;53.316;8.670;2024-02-21T13:54:19;35.42;;;23.52;;
46815;SDS011;32787;53.316;8.670;2024-02-21T13:56:46;34.92;;;23.10;;
46815;SDS011;32787;53.316;8.670;2024-02-21T13:59:12;36.78;;;23.83;;
46815;SDS011;32787;53.316;8.670;2024-02-21T14:01:41;34.97;;;23.42;;
46815;SDS011;32787;53.316;8.670;2024-02-21T14:04:07;36.70;;;24.05;;
46815;SDS011;32787;53.316;8.670;2024-02-21T14:06:32;37.03;;;23.85;;
46815;SDS011;32787;53.316;8.670;2024-02-21T14:08:58;37.53;;;24.33;;
46815;SDS011;32787;53.316;8.670;2024-02-21T14:11:24;37.05;;;23.90;;
46815;SDS011;32787;53.316;8.670;2024-02-21T14:13:50;36.85;;;23.77;;
46815;SDS011;32787;53.316;8.670;2024-02-21T14:16:15;36.85;;;23.90;;
46815;SDS011;32787;53.316;8.670;2024-02-21T14:18:41;36.58;;;23.92;;
46815;SDS011;32787;53.316;8.670;2024-02-21T14:21:10;36.38;;;23.85;;
46815;SDS011;32787;53.316;8.670;2024-02-21T14:23:36;38.00;;;24.33;;
46815;SDS011;32787;53.316;8.670;2024-02-21T14:26:03;36.65;;;23.98;;
46815;SDS011;32787;53.316;8.670;2024-02-21T14:28:29;37.20;;;24.10;;
46815;SDS011;32787;53.316;8.670;2024-02-21T14:30:55;36.35;;;23.92;;
46815;SDS011;32787;53.316;8.670;2024-02-21T14:33:23;37.63;;;24.17;;
46815;SDS011;32787;53.316;8.670;2024-02-21T14:35:50;36.45;;;23.88;;